TimeCDT,TemperatureF,Dew PointF,Humidity,Sea Level PressureIn,VisibilityMPH,Wind Direction,Wind SpeedMPH,Gust SpeedMPH,PrecipitationIn,Events,Conditions,WindDirDegrees,DateUTC
12:53 AM,52.0,48.9,89,30.16,10.0,Calm,Calm,-,N/A,,Clear,0,2011-10-05 05:53:00
1:53 AM,50.0,46.0,86,30.16,10.0,Calm,Calm,-,N/A,,Clear,0,2011-10-05 06:53:00
2:53 AM,50.0,45.0,83,30.15,10.0,Calm,Calm,-,N/A,,Clear,0,2011-10-05 07:53:00
3:53 AM,48.9,44.1,83,30.15,10.0,Calm,Calm,-,N/A,,Clear,0,2011-10-05 08:53:00
4:53 AM,48.9,45.0,86,30.16,10.0,Calm,Calm,-,N/A,,Clear,0,2011-10-05 09:53:00
5:53 AM,46.9,43.0,86,30.17,10.0,Calm,Calm,-,N/A,,Clear,0,2011-10-05 10:53:00
6:53 AM,48.0,45.0,89,30.18,10.0,Calm,Calm,-,N/A,,Clear,0,2011-10-05 11:53:00
7:53 AM,48.2,46.4,93,30.17,10.0,Calm,Calm,-,N/A,,Clear,0,2011-10-05 12:53:00
8:53 AM,59.0,50.0,72,30.20,10.0,Calm,Calm,-,N/A,,Clear,0,2011-10-05 13:53:00
9:53 AM,68.0,51.1,55,30.20,10.0,ESE,3.5,-,N/A,,Clear,120,2011-10-05 14:53:00
10:53 AM,75.0,46.0,36,30.19,10.0,Variable,3.5,-,N/A,,Clear,0,2011-10-05 15:53:00
11:12 AM,77.0,42.8,29,30.18,2.0,Variable,5.8,-,N/A,,Haze,0,2011-10-05 16:12:00
11:38 AM,78.8,41.0,26,30.17,10.0,East,5.8,-,N/A,,Clear,100,2011-10-05 16:38:00
11:53 AM,78.1,42.1,28,30.19,10.0,ESE,8.1,-,N/A,,Clear,120,2011-10-05 16:53:00
12:53 PM,81.0,39.0,22,30.17,10.0,East,10.4,-,N/A,,Clear,100,2011-10-05 17:53:00
1:53 PM,81.0,36.0,20,30.13,10.0,Variable,3.5,-,N/A,,Clear,0,2011-10-05 18:53:00
3:53 PM,82.0,35.1,18,30.08,10.0,SE,6.9,-,N/A,,Clear,140,2011-10-05 20:53:00
4:53 PM,82.9,33.1,17,30.07,10.0,ESE,4.6,-,N/A,,Clear,110,2011-10-05 21:53:00
5:53 PM,80.6,39.2,23,30.06,10.0,ESE,8.1,-,N/A,,Clear,110,2011-10-05 22:53:00
6:53 PM,70.0,48.9,47,30.07,10.0,East,4.6,-,N/A,,Clear,80,2011-10-05 23:53:00
7:53 PM,66.9,46.9,49,30.08,10.0,Calm,Calm,-,N/A,,Clear,0,2011-10-06 00:53:00
8:53 PM,64.0,45.0,50,30.09,10.0,Calm,Calm,-,N/A,,Clear,0,2011-10-06 01:53:00
9:53 PM,62.1,48.0,60,30.10,10.0,Calm,Calm,-,N/A,,Clear,0,2011-10-06 02:53:00
10:53 PM,60.1,48.9,67,30.09,10.0,Calm,Calm,-,N/A,,Clear,0,2011-10-06 03:53:00
11:53 PM,59.0,50.0,72,30.09,10.0,Calm,Calm,-,N/A,,Clear,0,2011-10-06 04:53:00